createdAt,value
2023-05-02T00:01:44.911Z,100089.59
2023-05-02T00:04:12.706Z,100094.78
2023-05-02T00:06:42.410Z,100098.69
2023-05-02T00:09:10.438Z,100090.06
2023-05-02T00:11:37.951Z,100094.81
2023-05-02T00:14:05.548Z,100093.16
2023-05-02T00:16:34.414Z,100086.19
2023-05-02T00:19:02.080Z,100095.06
2023-05-02T00:21:29.946Z,100089.34
2023-05-02T00:23:57.878Z,100097.16
2023-05-02T00:26:26.827Z,100097.50
2023-05-02T00:28:54.367Z,100102.84
2023-05-02T00:31:21.920Z,100099.88
2023-05-02T00:33:50.876Z,100105.41
2023-05-02T00:36:19.683Z,100111.94
2023-05-02T00:38:47.197Z,100108.41
2023-05-02T00:41:14.893Z,100115.34
2023-05-02T00:43:42.507Z,100116.38
2023-05-02T00:46:13.187Z,100113.00
2023-05-02T00:48:40.907Z,100111.72
2023-05-02T00:51:12.180Z,100130.34
2023-05-02T00:53:40.064Z,100121.50
2023-05-02T00:56:08.603Z,100118.59
2023-05-02T00:58:36.954Z,100120.59
2023-05-02T01:01:12.244Z,100122.63
2023-05-02T01:03:43.633Z,100117.47
2023-05-02T01:06:21.256Z,100114.22
2023-05-02T01:08:53.822Z,100116.47
2023-05-02T01:11:30.454Z,100113.91
2023-05-02T01:13:59.870Z,100115.97
2023-05-02T01:16:27.881Z,100109.84
2023-05-02T01:18:55.422Z,100105.97
2023-05-02T01:21:24.571Z,100096.56
2023-05-02T01:23:59.096Z,100103.63
2023-05-02T01:26:31.810Z,100110.53
2023-05-02T01:29:01.041Z,100110.75
2023-05-02T01:31:30.279Z,100112.19
2023-05-02T01:33:59.100Z,100108.69
2023-05-02T01:36:29.396Z,100111.16
2023-05-02T01:38:57.938Z,100113.06
2023-05-02T01:41:28.193Z,100114.94
2023-05-02T01:43:58.471Z,100122.63
2023-05-02T01:46:28.356Z,100118.88
2023-05-02T01:48:58.850Z,100119.31
2023-05-02T01:51:31.906Z,100116.53
2023-05-02T01:54:01.155Z,100123.34
2023-05-02T01:56:28.951Z,100120.78
2023-05-02T01:58:56.906Z,100116.84
2023-05-02T02:01:27.497Z,100132.03
2023-05-02T02:03:57.919Z,100129.25
2023-05-02T02:06:26.007Z,100132.13
2023-05-02T02:08:53.591Z,100135.81
2023-05-02T02:11:26.227Z,100144.13
2023-05-02T02:13:54.357Z,100142.38
2023-05-02T02:16:26.275Z,100141.16
2023-05-02T02:18:57.097Z,100146.34
2023-05-02T02:21:25.103Z,100148.78
2023-05-02T02:23:55.150Z,100151.88
2023-05-02T02:26:23.272Z,100152.97
2023-05-02T02:28:50.781Z,100152.38
2023-05-02T02:31:18.385Z,100153.03
2023-05-02T02:33:45.960Z,100154.25
2023-05-02T02:36:18.309Z,100157.75
2023-05-02T02:38:49.191Z,100165.78
2023-05-02T02:41:20.498Z,100158.84
2023-05-02T02:43:54.453Z,100159.44
2023-05-02T02:46:30.592Z,100160.81
2023-05-02T02:49:03.910Z,100162.81
2023-05-02T02:51:35.040Z,100165.16
2023-05-02T02:54:22.996Z,100168.63
2023-05-02T02:57:00.553Z,100174.44
2023-05-02T02:59:31.761Z,100169.91
2023-05-02T03:02:04.490Z,100170.47
2023-05-02T03:04:32.041Z,100176.41
2023-05-02T03:07:01.331Z,100180.91
2023-05-02T03:09:33.583Z,100176.81
2023-05-02T03:12:01.352Z,100185.16
2023-05-02T03:14:28.853Z,100181.44
2023-05-02T03:16:57.026Z,100187.13
2023-05-02T03:19:24.634Z,100189.31
2023-05-02T03:21:52.413Z,100187.66
2023-05-02T03:24:21.923Z,100195.84
2023-05-02T03:26:49.603Z,100199.50
2023-05-02T03:29:17.282Z,100195.94
2023-05-02T03:31:44.788Z,100196.09
2023-05-02T03:34:12.321Z,100203.63
2023-05-02T03:36:39.814Z,100200.91
2023-05-02T03:39:07.649Z,100202.88
2023-05-02T03:41:36.502Z,100195.31
2023-05-02T03:44:04.292Z,100211.03
2023-05-02T03:46:31.775Z,100210.38
2023-05-02T03:48:59.573Z,100214.34
2023-05-02T03:51:27.642Z,100215.88
2023-05-02T03:53:55.156Z,100223.13
2023-05-02T03:56:23.304Z,100229.47
2023-05-02T03:58:52.109Z,100225.03
2023-05-02T04:01:19.982Z,100228.59
2023-05-02T04:03:47.617Z,100233.56
2023-05-02T04:06:15.528Z,100230.66
2023-05-02T04:08:43.398Z,100233.06
2023-05-02T04:11:11.043Z,100242.19
2023-05-02T04:13:38.609Z,100242.75
2023-05-02T04:16:07.980Z,100245.84
2023-05-02T04:18:35.510Z,100254.06
2023-05-02T04:21:03.248Z,100254.19
2023-05-02T04:23:30.731Z,100257.44
2023-05-02T04:25:58.230Z,100265.50
2023-05-02T04:28:25.897Z,100266.28
2023-05-02T04:30:53.623Z,100275.59
2023-05-02T04:33:22.515Z,100281.88
2023-05-02T04:35:50.140Z,100280.66
2023-05-02T04:38:17.614Z,100278.22
2023-05-02T04:40:45.944Z,100287.78
2023-05-02T04:43:13.577Z,100292.84
2023-05-02T04:45:41.084Z,100297.56
2023-05-02T04:48:08.605Z,100302.13
2023-05-02T04:50:37.470Z,100309.50
2023-05-02T04:53:05.303Z,100313.72
2023-05-02T04:55:32.784Z,100309.25
2023-05-02T04:58:00.260Z,100319.91
2023-05-02T05:00:27.746Z,100316.56
2023-05-02T05:02:55.426Z,100324.09
2023-05-02T05:05:23.019Z,100335.78
2023-05-02T05:07:52.501Z,100333.38
2023-05-02T05:10:20.017Z,100336.66
2023-05-02T05:12:49.258Z,100350.59
2023-05-02T05:15:17.193Z,100348.56
2023-05-02T05:17:44.708Z,100351.91
2023-05-02T05:20:12.749Z,100349.50
2023-05-02T05:22:41.417Z,100351.78
2023-05-02T05:25:11.308Z,100352.13
2023-05-02T05:27:39.675Z,100346.59
2023-05-02T05:30:08.859Z,100351.81
2023-05-02T05:32:36.565Z,100352.59
2023-05-02T05:35:04.862Z,100353.19
2023-05-02T05:37:32.398Z,100359.56
2023-05-02T05:40:00.237Z,100367.84
2023-05-02T05:42:29.460Z,100368.34
2023-05-02T05:44:57.027Z,100360.63
2023-05-02T05:47:24.797Z,100366.66
2023-05-02T05:49:54.156Z,100375.28
2023-05-02T05:52:21.657Z,100368.53
2023-05-02T05:54:49.422Z,100383.16
2023-05-02T05:57:16.892Z,100385.50
2023-05-02T05:59:45.795Z,100383.25
2023-05-02T06:02:13.512Z,100397.31
2023-05-02T06:04:41.115Z,100392.56
2023-05-02T06:07:08.623Z,100398.53
2023-05-02T06:09:36.291Z,100395.84
2023-05-02T06:12:03.824Z,100400.00
2023-05-02T06:14:31.313Z,100404.53
2023-05-02T06:17:01.263Z,100411.44
2023-05-02T06:19:28.756Z,100408.00
2023-05-02T06:21:56.222Z,100412.03
2023-05-02T06:24:23.776Z,100416.50
2023-05-02T06:26:51.838Z,100409.59
2023-05-02T06:29:19.524Z,100423.19
2023-05-02T06:31:47.081Z,100422.41
2023-05-02T06:34:16.081Z,100431.38
2023-05-02T06:36:43.598Z,100441.09
2023-05-02T06:39:11.621Z,100449.59
2023-05-02T06:41:39.107Z,100458.03
2023-05-02T06:44:06.747Z,100462.56
2023-05-02T06:46:34.293Z,100461.44
2023-05-02T06:49:01.821Z,100462.25
2023-05-02T06:51:31.812Z,100476.75
2023-05-02T06:53:59.332Z,100486.16
2023-05-02T06:56:27.020Z,100487.97
2023-05-02T06:58:54.521Z,100484.09
2023-05-02T07:01:22.025Z,100496.63
2023-05-02T07:03:49.580Z,100487.06
2023-05-02T07:06:17.224Z,100492.16
2023-05-02T07:08:46.094Z,100499.53
2023-05-02T07:11:13.647Z,100498.44
2023-05-02T07:13:41.170Z,100509.28
2023-05-02T07:16:08.907Z,100506.31
2023-05-02T07:18:36.461Z,100508.41
2023-05-02T07:21:04.244Z,100516.00
2023-05-02T07:23:31.738Z,100513.22
2023-05-02T07:26:00.549Z,100520.63
2023-05-02T07:28:28.046Z,100524.16
2023-05-02T07:30:55.521Z,100528.75
2023-05-02T07:33:23.755Z,100528.53
2023-05-02T07:35:51.390Z,100530.19
2023-05-02T07:38:19.115Z,100545.00
2023-05-02T07:40:46.955Z,100553.47
2023-05-02T07:43:16.433Z,100549.72
2023-05-02T07:45:43.949Z,100563.09
2023-05-02T07:48:11.543Z,100565.69
2023-05-02T07:50:39.052Z,100580.75
2023-05-02T07:53:06.534Z,100570.84
2023-05-02T07:55:34.025Z,100577.69
2023-05-02T07:58:01.628Z,100575.53
2023-05-02T08:00:30.461Z,100583.94
2023-05-02T08:02:58.108Z,100593.84
2023-05-02T08:05:25.721Z,100598.13
2023-05-02T08:07:53.381Z,100597.72
2023-05-02T08:10:20.983Z,100610.25
2023-05-02T08:12:48.460Z,100621.44
2023-05-02T08:15:15.932Z,100622.03
2023-05-02T08:17:44.749Z,100624.69
2023-05-02T08:20:12.841Z,100625.47
2023-05-02T08:22:40.313Z,100635.44
2023-05-02T08:25:08.157Z,100639.38
2023-05-02T08:27:35.804Z,100648.31
2023-05-02T08:30:03.687Z,100645.00
2023-05-02T08:32:31.517Z,100644.88
2023-05-02T08:35:00.342Z,100652.06
2023-05-02T08:37:27.819Z,100648.88
2023-05-02T08:39:55.316Z,100663.09
2023-05-02T08:42:22.955Z,100655.69
2023-05-02T08:44:50.659Z,100662.88
2023-05-02T08:47:19.611Z,100675.59
2023-05-02T08:49:47.483Z,100677.69
2023-05-02T08:52:16.870Z,100686.06
2023-05-02T08:54:46.252Z,100681.59
2023-05-02T08:57:13.749Z,100673.22
2023-05-02T08:59:41.290Z,100682.31
2023-05-02T09:02:14.117Z,100696.16
2023-05-02T09:04:42.523Z,100690.19
2023-05-02T09:07:10.893Z,100696.53
2023-05-02T09:09:39.983Z,100706.50
2023-05-02T09:12:07.483Z,100707.69
2023-05-02T09:14:35.673Z,100714.38
2023-05-02T09:17:03.225Z,100718.03
2023-05-02T09:19:30.739Z,100727.88
2023-05-02T09:22:02.260Z,100730.09
2023-05-02T09:24:29.963Z,100733.06
2023-05-02T09:27:00.867Z,100732.19
2023-05-02T09:29:35.788Z,100737.66
2023-05-02T09:32:04.193Z,100738.25
2023-05-02T09:34:31.880Z,100756.34
2023-05-02T09:36:59.372Z,100757.19
2023-05-02T09:39:29.038Z,100753.72
2023-05-02T09:41:57.297Z,100765.03
2023-05-02T09:44:27.056Z,100770.69
2023-05-02T09:46:55.931Z,100773.06
2023-05-02T09:49:41.518Z,100768.81
2023-05-02T09:52:12.732Z,100776.44
2023-05-02T09:54:40.306Z,100783.69
2023-05-02T09:57:07.988Z,100778.16
2023-05-02T09:59:36.829Z,100774.16
2023-05-02T10:02:07.250Z,100784.66
2023-05-02T10:04:35.583Z,100791.41
2023-05-02T10:07:05.061Z,100773.38
2023-05-02T10:09:34.186Z,100793.50
2023-05-02T10:12:05.104Z,100794.06
2023-05-02T10:14:33.031Z,100795.44
2023-05-02T10:17:06.350Z,100805.00
2023-05-02T10:19:39.617Z,100798.16
2023-05-02T10:22:08.070Z,100809.22
2023-05-02T10:24:35.796Z,100809.75
2023-05-02T10:27:05.516Z,100802.31
2023-05-02T10:29:33.558Z,100813.53
2023-05-02T10:32:04.923Z,100821.53
2023-05-02T10:34:33.814Z,100819.13
2023-05-02T10:37:02.261Z,100816.13
2023-05-02T10:39:30.209Z,100814.41
2023-05-02T10:41:59.131Z,100824.53
2023-05-02T10:44:36.374Z,100821.03
2023-05-02T10:47:19.473Z,100819.56
2023-05-02T10:49:54.783Z,100827.19
2023-05-02T10:52:31.594Z,100825.06
2023-05-02T10:55:15.511Z,100831.59
2023-05-02T10:58:25.479Z,100834.03
2023-05-02T11:00:53.084Z,100833.19
2023-05-02T11:03:57.069Z,100827.91
2023-05-02T11:06:24.905Z,100829.81
2023-05-02T11:08:52.569Z,100840.47
2023-05-02T11:11:40.292Z,100843.03
2023-05-02T11:14:07.869Z,100825.16
2023-05-02T11:17:09.068Z,100834.72
2023-05-02T11:20:26.038Z,100835.97
2023-05-02T11:22:56.008Z,100840.28
2023-05-02T11:25:40.007Z,100835.78
2023-05-02T11:28:09.392Z,100849.91
2023-05-02T11:30:43.546Z,100843.91
2023-05-02T11:33:19.956Z,100844.81
2023-05-02T11:35:49.090Z,100842.59
2023-05-02T11:38:21.677Z,100843.97
2023-05-02T11:40:57.507Z,100841.41
2023-05-02T11:43:26.281Z,100835.34
2023-05-02T11:45:54.501Z,100846.09
2023-05-02T11:48:27.151Z,100838.09
2023-05-02T11:50:56.500Z,100841.06
2023-05-02T11:53:26.528Z,100842.44
2023-05-02T11:55:55.260Z,100852.69
2023-05-02T11:58:25.107Z,100860.38
2023-05-02T12:00:53.218Z,100867.72
2023-05-02T12:03:31.745Z,100865.81
2023-05-02T12:06:10.715Z,100869.88
2023-05-02T12:08:40.467Z,100871.03
2023-05-02T12:11:09.160Z,100868.50
2023-05-02T12:13:36.824Z,100874.84
2023-05-02T12:16:04.708Z,100871.59
2023-05-02T12:18:33.773Z,100873.56
2023-05-02T12:21:01.295Z,100875.91
2023-05-02T12:23:28.784Z,100889.91
2023-05-02T12:25:57.650Z,100888.66
2023-05-02T12:28:25.148Z,100885.34
2023-05-02T12:30:52.815Z,100890.44
2023-05-02T12:33:21.289Z,100878.34
2023-05-02T12:35:48.941Z,100880.22
2023-05-02T12:38:18.844Z,100887.84
2023-05-02T12:40:51.658Z,100883.03
2023-05-02T12:43:21.980Z,100882.63
2023-05-02T12:45:50.120Z,100894.34
2023-05-02T12:48:25.114Z,100893.34
2023-05-02T12:50:53.439Z,100885.31
2023-05-02T12:53:39.052Z,100902.81
2023-05-02T12:56:07.537Z,100900.53
2023-05-02T12:58:43.856Z,100893.81
2023-05-02T13:01:11.449Z,100901.06
2023-05-02T13:03:39.274Z,100908.69
2023-05-02T13:06:07.254Z,100909.84
2023-05-02T13:08:35.529Z,100908.75
2023-05-02T13:11:03.897Z,100913.97
2023-05-02T13:13:32.562Z,100913.91
2023-05-02T13:16:01.412Z,100914.88
2023-05-02T13:18:29.105Z,100916.06
2023-05-02T13:20:56.616Z,100921.38
2023-05-02T13:23:24.161Z,100918.38
2023-05-02T13:25:51.660Z,100923.66
2023-05-02T13:28:19.241Z,100925.53
2023-05-02T13:30:46.788Z,100935.59
2023-05-02T13:33:16.010Z,100935.88
2023-05-02T13:35:43.757Z,100936.81
2023-05-02T13:38:11.568Z,100934.78
2023-05-02T13:40:39.055Z,100925.41
2023-05-02T13:43:06.526Z,100921.75
2023-05-02T13:45:34.106Z,100908.75
2023-05-02T13:48:01.624Z,100918.47
2023-05-02T13:50:30.713Z,100920.47
2023-05-02T13:52:58.226Z,100919.88
2023-05-02T13:55:25.719Z,100921.22
2023-05-02T13:57:53.207Z,100920.94
2023-05-02T14:00:21.086Z,100916.47
2023-05-02T14:02:49.183Z,100909.06
2023-05-02T14:05:16.762Z,100917.06
2023-05-02T14:07:45.850Z,100925.75
2023-05-02T14:10:13.343Z,100931.72
2023-05-02T14:12:40.829Z,100926.13
2023-05-02T14:15:09.664Z,100923.88
2023-05-02T14:17:37.310Z,100927.56
2023-05-02T14:20:05.782Z,100930.03
2023-05-02T14:22:33.337Z,100943.72
2023-05-02T14:25:02.374Z,100937.69
2023-05-02T14:27:29.853Z,100937.28
2023-05-02T14:29:57.373Z,100947.56
2023-05-02T14:32:25.008Z,100932.53
2023-05-02T14:34:52.504Z,100935.09
2023-05-02T14:37:20.006Z,100926.09
2023-05-02T14:39:51.208Z,100937.22
2023-05-02T14:42:21.898Z,100926.84
2023-05-02T14:44:49.402Z,100931.06
2023-05-02T14:47:17.270Z,100933.38
2023-05-02T14:49:45.063Z,100943.59
2023-05-02T14:52:12.582Z,100940.28
2023-05-02T14:54:40.131Z,100943.75
2023-05-02T14:57:07.929Z,100943.16
2023-05-02T14:59:38.586Z,100946.94
2023-05-02T15:02:06.246Z,100945.56
2023-05-02T15:04:33.986Z,100943.47
2023-05-02T15:07:01.665Z,100949.75
2023-05-02T15:09:29.292Z,100950.72
2023-05-02T15:11:56.962Z,100942.31
2023-05-02T15:14:24.542Z,100934.44
2023-05-02T15:16:53.408Z,100942.13
2023-05-02T15:19:22.541Z,100930.88
2023-05-02T15:21:53.020Z,100934.66
2023-05-02T15:24:20.800Z,100935.53
2023-05-02T15:26:48.328Z,100942.25
2023-05-02T15:29:16.267Z,100939.22
2023-05-02T15:31:43.889Z,100951.06
2023-05-02T15:34:12.764Z,100971.41
2023-05-02T15:36:40.709Z,100968.06
2023-05-02T15:39:08.459Z,100967.00
2023-05-02T15:41:35.981Z,100969.06
2023-05-02T15:44:03.472Z,100970.25
2023-05-02T15:46:31.032Z,100970.69
2023-05-02T15:48:58.717Z,100976.53
2023-05-02T15:51:27.674Z,100978.28
2023-05-02T15:53:55.716Z,100984.53
2023-05-02T15:56:23.223Z,100979.56
2023-05-02T15:58:50.696Z,100984.66
2023-05-02T16:01:18.268Z,100988.72
2023-05-02T16:03:45.904Z,100991.34
2023-05-02T16:06:13.706Z,100998.81
2023-05-02T16:08:42.620Z,100996.34
2023-05-02T16:11:10.144Z,101001.34
2023-05-02T16:13:38.272Z,101000.81
2023-05-02T16:16:07.691Z,101010.91
2023-05-02T16:18:35.426Z,101018.00
2023-05-02T16:21:03.021Z,101020.97
2023-05-02T16:23:30.585Z,101028.63
2023-05-02T16:26:00.145Z,101024.06
2023-05-02T16:28:27.769Z,101027.94
2023-05-02T16:30:55.454Z,101020.22
2023-05-02T16:33:23.134Z,101035.25
2023-05-02T16:35:50.634Z,101029.31
2023-05-02T16:38:19.141Z,101029.25
2023-05-02T16:40:47.106Z,101035.44
2023-05-02T16:43:16.735Z,101029.25
2023-05-02T16:45:46.791Z,101035.03
2023-05-02T16:48:14.695Z,101039.56
2023-05-02T16:50:42.229Z,101043.06
2023-05-02T16:53:09.893Z,101034.47
2023-05-02T16:55:37.407Z,101038.41
2023-05-02T16:58:04.982Z,101036.72
2023-05-02T17:00:34.003Z,101044.47
2023-05-02T17:03:03.716Z,101054.63
2023-05-02T17:05:32.857Z,101051.41
2023-05-02T17:08:00.422Z,101061.84
2023-05-02T17:10:28.078Z,101060.66
2023-05-02T17:12:56.016Z,101069.03
2023-05-02T17:15:23.728Z,101065.94
2023-05-02T17:17:52.603Z,101072.25
2023-05-02T17:20:20.410Z,101077.03
2023-05-02T17:22:48.092Z,101075.84
2023-05-02T17:25:15.565Z,101081.28
2023-05-02T17:27:43.316Z,101084.06
2023-05-02T17:30:13.532Z,101081.31
2023-05-02T17:32:41.062Z,101084.91
2023-05-02T17:35:10.665Z,101091.38
2023-05-02T17:37:39.894Z,101098.09
2023-05-02T17:40:08.623Z,101096.13
2023-05-02T17:42:36.142Z,101089.09
2023-05-02T17:45:04.214Z,101092.63
2023-05-02T17:47:31.759Z,101089.63
2023-05-02T17:49:59.297Z,101092.19
2023-05-02T17:52:28.723Z,101095.88
2023-05-02T17:54:56.208Z,101097.16
2023-05-02T17:57:23.672Z,101100.25
2023-05-02T17:59:53.667Z,101109.19
2023-05-02T18:02:22.289Z,101109.34
2023-05-02T18:04:50.355Z,101113.53
2023-05-02T18:07:23.690Z,101120.59
2023-05-02T18:09:52.575Z,101111.16
2023-05-02T18:12:20.236Z,101113.41
2023-05-02T18:14:48.279Z,101119.19
2023-05-02T18:17:17.733Z,101127.31
2023-05-02T18:19:45.248Z,101134.03
2023-05-02T18:22:13.997Z,101127.19
2023-05-02T18:24:41.690Z,101137.28
2023-05-02T18:27:10.664Z,101137.34
2023-05-02T18:29:38.359Z,101134.97
2023-05-02T18:32:06.313Z,101144.97
2023-05-02T18:34:35.631Z,101150.50
2023-05-02T18:37:05.832Z,101150.50
2023-05-02T18:39:36.180Z,101151.19
2023-05-02T18:42:04.108Z,101152.81
2023-05-02T18:44:32.968Z,101152.22
2023-05-02T18:47:00.937Z,101152.25
2023-05-02T18:49:28.497Z,101156.84
2023-05-02T18:51:55.958Z,101154.13
2023-05-02T18:54:24.308Z,101160.31
2023-05-02T18:56:51.850Z,101164.03
2023-05-02T18:59:19.750Z,101160.34
2023-05-02T19:01:49.110Z,101161.03
2023-05-02T19:04:18.153Z,101164.72
2023-05-02T19:06:45.816Z,101170.16
2023-05-02T19:09:13.604Z,101173.03
2023-05-02T19:11:41.290Z,101171.91
2023-05-02T19:14:08.777Z,101174.44
2023-05-02T19:16:38.079Z,101179.78
2023-05-02T19:19:08.562Z,101177.25
2023-05-02T19:21:36.144Z,101174.66
2023-05-02T19:24:03.833Z,101182.72
2023-05-02T19:26:31.489Z,101192.47
2023-05-02T19:28:59.128Z,101195.16
2023-05-02T19:31:26.923Z,101191.56
2023-05-02T19:33:54.889Z,101190.25
2023-05-02T19:36:24.760Z,101198.63
2023-05-02T19:38:54.027Z,101207.66
2023-05-02T19:41:22.518Z,101203.28
2023-05-02T19:43:50.475Z,101205.94
2023-05-02T19:46:18.296Z,101210.41
2023-05-02T19:48:45.941Z,101210.25
2023-05-02T19:51:13.886Z,101209.28
2023-05-02T19:53:42.724Z,101210.38
2023-05-02T19:56:10.498Z,101219.22
2023-05-02T19:58:38.029Z,101218.34
2023-05-02T20:01:05.918Z,101215.50
2023-05-02T20:03:34.622Z,101223.72
2023-05-02T20:06:02.597Z,101229.91
2023-05-02T20:08:31.477Z,101241.47
2023-05-02T20:11:00.364Z,101239.72
2023-05-02T20:13:28.192Z,101236.19
2023-05-02T20:15:55.827Z,101240.63
2023-05-02T20:18:23.471Z,101237.94
2023-05-02T20:20:51.010Z,101238.75
2023-05-02T20:23:18.522Z,101245.03
2023-05-02T20:25:46.052Z,101240.66
2023-05-02T20:28:15.043Z,101239.75
2023-05-02T20:30:43.797Z,101241.44
2023-05-02T20:33:16.121Z,101251.31
2023-05-02T20:35:44.732Z,101246.84
2023-05-02T20:38:12.337Z,101251.19
2023-05-02T20:40:40.913Z,101252.09
2023-05-02T20:43:08.967Z,101248.63
2023-05-02T20:45:38.787Z,101252.16
2023-05-02T20:48:07.000Z,101252.13
2023-05-02T20:50:34.945Z,101257.31
2023-05-02T20:53:02.433Z,101256.41
2023-05-02T20:55:29.922Z,101264.59
2023-05-02T20:57:57.379Z,101266.31
2023-05-02T21:00:25.714Z,101253.56
2023-05-02T21:02:56.694Z,101263.28
2023-05-02T21:05:24.174Z,101266.88
2023-05-02T21:07:51.700Z,101268.63
2023-05-02T21:10:19.337Z,101271.53
2023-05-02T21:12:47.032Z,101268.06
2023-05-02T21:15:14.935Z,101270.69
2023-05-02T21:17:42.572Z,101274.91
2023-05-02T21:20:12.489Z,101274.66
2023-05-02T21:22:40.090Z,101283.06
2023-05-02T21:25:08.033Z,101284.84
2023-05-02T21:27:35.627Z,101279.06
2023-05-02T21:30:03.407Z,101287.28
2023-05-02T21:32:31.267Z,101281.94
2023-05-02T21:34:58.795Z,101284.22
2023-05-02T21:37:27.966Z,101286.16
2023-05-02T21:39:55.615Z,101289.22
2023-05-02T21:42:23.110Z,101288.00
2023-05-02T21:44:51.005Z,101292.13
2023-05-02T21:47:18.569Z,101299.66
2023-05-02T21:49:46.076Z,101307.25
2023-05-02T21:52:13.565Z,101295.53
2023-05-02T21:54:42.658Z,101301.31
2023-05-02T21:57:10.689Z,101304.34
2023-05-02T21:59:39.078Z,101302.94
2023-05-02T22:02:06.650Z,101305.97
2023-05-02T22:04:34.203Z,101311.06
2023-05-02T22:07:01.736Z,101318.84
2023-05-02T22:09:30.811Z,101310.66
2023-05-02T22:12:02.888Z,101304.97
2023-05-02T22:14:43.665Z,101317.53
2023-05-02T22:17:13.750Z,101319.75
2023-05-02T22:19:41.837Z,101317.28
2023-05-02T22:22:09.394Z,101322.88
2023-05-02T22:24:36.887Z,101322.84
2023-05-02T22:27:07.464Z,101326.00
2023-05-02T22:29:34.924Z,101332.56
2023-05-02T22:32:02.449Z,101331.38
2023-05-02T22:34:29.954Z,101332.34
2023-05-02T22:36:57.596Z,101333.44
2023-05-02T22:39:25.059Z,101333.34
2023-05-02T22:41:52.603Z,101329.22
2023-05-02T22:44:21.465Z,101333.47
2023-05-02T22:46:49.293Z,101334.97
2023-05-02T22:49:16.756Z,101334.88
2023-05-02T22:51:45.187Z,101337.31
2023-05-02T22:54:14.951Z,101341.31
2023-05-02T22:56:42.507Z,101343.19
2023-05-02T22:59:10.526Z,101345.59
2023-05-02T23:01:39.415Z,101340.09
2023-05-02T23:04:07.065Z,101333.22
2023-05-02T23:06:34.685Z,101334.88
2023-05-02T23:09:02.190Z,101337.63
2023-05-02T23:11:29.849Z,101333.09
2023-05-02T23:13:57.343Z,101331.88
2023-05-02T23:16:25.750Z,101332.50
2023-05-02T23:18:54.614Z,101329.81
2023-05-02T23:21:22.118Z,101335.34
2023-05-02T23:23:49.577Z,101346.13
2023-05-02T23:26:17.075Z,101350.88
2023-05-02T23:28:44.534Z,101354.50
2023-05-02T23:31:13.028Z,101347.41
2023-05-02T23:33:41.226Z,101351.56
2023-05-02T23:36:10.753Z,101351.41
2023-05-02T23:38:38.610Z,101354.78
2023-05-02T23:41:06.275Z,101349.31
2023-05-02T23:43:33.837Z,101350.97
2023-05-02T23:46:02.102Z,101356.13
2023-05-02T23:48:29.622Z,101354.16
2023-05-02T23:50:57.380Z,101353.28
2023-05-02T23:53:26.180Z,101355.69
2023-05-02T23:55:53.652Z,101348.44
2023-05-02T23:58:21.144Z,101354.59
